sensor_id;sensor_type;location;lat;lon;timestamp;pressure;altitude;pressure_sealevel;temperature;humidity
78073;BME280;67281;48.770;11.440;2023-05-10T00:01:32;96568.66;;;22.89;42.88
78073;BME280;67281;48.770;11.440;2023-05-10T00:03:58;96574.19;;;22.88;43.20
78073;BME280;67281;48.770;11.440;2023-05-10T00:06:25;96570.69;;;22.87;42.89
78073;BME280;67281;48.770;11.440;2023-05-10T00:08:52;96569.88;;;22.87;43.02
78073;BME280;67281;48.770;11.440;2023-05-10T00:11:19;96564.72;;;22.85;42.80
78073;BME280;67281;48.770;11.440;2023-05-10T00:13:48;96571.09;;;22.84;42.86
78073;BME280;67281;48.770;11.440;2023-05-10T00:16:15;96571.28;;;22.83;43.21
78073;BME280;67281;48.770;11.440;2023-05-10T00:18:42;96566.16;;;22.81;43.43
78073;BME280;67281;48.770;11.440;2023-05-10T00:21:09;96553.81;;;22.80;43.39
78073;BME280;67281;48.770;11.440;2023-05-10T00:23:36;96561.38;;;22.77;43.68
78073;BME280;67281;48.770;11.440;2023-05-10T00:26:03;96553.38;;;22.77;43.16
78073;BME280;67281;48.770;11.440;2023-05-10T00:28:29;96550.91;;;22.75;43.36
78073;BME280;67281;48.770;11.440;2023-05-10T00:30:56;96561.78;;;22.74;43.59
78073;BME280;67281;48.770;11.440;2023-05-10T00:33:23;96560.97;;;22.73;43.23
78073;BME280;67281;48.770;11.440;2023-05-10T00:35:50;96565.28;;;22.74;43.49
78073;BME280;67281;48.770;11.440;2023-05-10T00:38:16;96565.28;;;22.74;43.67
78073;BME280;67281;48.770;11.440;2023-05-10T00:40:43;96560.13;;;22.73;43.49
78073;BME280;67281;48.770;11.440;2023-05-10T00:43:10;96568.34;;;22.71;43.43
78073;BME280;67281;48.770;11.440;2023-05-10T00:45:39;96555.19;;;22.70;43.24
78073;BME280;67281;48.770;11.440;2023-05-10T00:48:06;96557.03;;;22.69;43.59
78073;BME280;67281;48.770;11.440;2023-05-10T00:50:33;96551.06;;;22.67;43.52
78073;BME280;67281;48.770;11.440;2023-05-10T00:53:01;96546.75;;;22.66;43.55
78073;BME280;67281;48.770;11.440;2023-05-10T00:55:29;96557.44;;;22.66;43.35
78073;BME280;67281;48.770;11.440;2023-05-10T00:57:56;96552.28;;;22.65;43.55
78073;BME280;67281;48.770;11.440;2023-05-10T01:00:23;96549.19;;;22.61;43.73
78073;BME280;67281;48.770;11.440;2023-05-10T01:02:50;96542.22;;;22.60;43.69
78073;BME280;67281;48.770;11.440;2023-05-10T01:05:17;96548.56;;;22.59;43.44
78073;BME280;67281;48.770;11.440;2023-05-10T01:07:44;96546.53;;;22.61;43.99
78073;BME280;67281;48.770;11.440;2023-05-10T01:10:10;96544.88;;;22.60;44.12
78073;BME280;67281;48.770;11.440;2023-05-10T01:12:40;96553.09;;;22.58;43.36
78073;BME280;67281;48.770;11.440;2023-05-10T01:15:08;96552.28;;;22.58;44.01
78073;BME280;67281;48.770;11.440;2023-05-10T01:17:38;96545.09;;;22.58;43.36
78073;BME280;67281;48.770;11.440;2023-05-10T01:20:07;96545.28;;;22.57;43.95
78073;BME280;67281;48.770;11.440;2023-05-10T01:28:57;96537.66;;;22.54;43.69
78073;BME280;67281;48.770;11.440;2023-05-10T01:34:09;96546.91;;;22.51;43.99
78073;BME280;67281;48.770;11.440;2023-05-10T01:37:01;96546.06;;;22.51;43.50
78073;BME280;67281;48.770;11.440;2023-05-10T01:39:39;96543.59;;;22.49;44.09
78073;BME280;67281;48.770;11.440;2023-05-10T01:42:16;96547.09;;;22.50;43.51
78073;BME280;67281;48.770;11.440;2023-05-10T01:45:11;96542.78;;;22.49;43.57
78073;BME280;67281;48.770;11.440;2023-05-10T01:48:06;96546.47;;;22.48;43.82
78073;BME280;67281;48.770;11.440;2023-05-10T01:50:36;96546.88;;;22.45;43.60
78073;BME280;67281;48.770;11.440;2023-05-10T01:53:06;96545.03;;;22.45;43.52
78073;BME280;67281;48.770;11.440;2023-05-10T01:55:41;96544.19;;;22.45;44.28
78073;BME280;67281;48.770;11.440;2023-05-10T01:58:13;96545.22;;;22.44;44.20
78073;BME280;67281;48.770;11.440;2023-05-10T02:00:43;96552.41;;;22.43;44.04
78073;BME280;67281;48.770;11.440;2023-05-10T02:03:11;96553.44;;;22.42;43.72
78073;BME280;67281;48.770;11.440;2023-05-10T02:05:41;96547.28;;;22.42;44.22
78073;BME280;67281;48.770;11.440;2023-05-10T02:08:11;96542.94;;;22.41;44.24
78073;BME280;67281;48.770;11.440;2023-05-10T02:10:39;96545.63;;;22.41;43.69
78073;BME280;67281;48.770;11.440;2023-05-10T02:13:08;96540.47;;;22.39;44.26
78073;BME280;67281;48.770;11.440;2023-05-10T02:15:36;96547.88;;;22.37;44.16
78073;BME280;67281;48.770;11.440;2023-05-10T02:18:05;96543.34;;;22.38;43.66
78073;BME280;67281;48.770;11.440;2023-05-10T02:20:33;96548.69;;;22.38;43.84
78073;BME280;67281;48.770;11.440;2023-05-10T02:23:02;96551.56;;;22.36;43.65
78073;BME280;67281;48.770;11.440;2023-05-10T02:25:31;96545.38;;;22.36;44.02
78073;BME280;67281;48.770;11.440;2023-05-10T02:27:59;96546.41;;;22.35;43.68
78073;BME280;67281;48.770;11.440;2023-05-10T02:30:28;96550.09;;;22.34;43.88
78073;BME280;67281;48.770;11.440;2023-05-10T02:32:58;96551.94;;;22.33;44.37
78073;BME280;67281;48.770;11.440;2023-05-10T02:35:26;96553.78;;;22.33;43.94
78073;BME280;67281;48.770;11.440;2023-05-10T02:37:54;96559.13;;;22.33;44.16
78073;BME280;67281;48.770;11.440;2023-05-10T02:40:23;96556.84;;;22.29;44.31
78073;BME280;67281;48.770;11.440;2023-05-10T02:42:56;96550.69;;;22.29;44.38
78073;BME280;67281;48.770;11.440;2023-05-10T02:45:25;96547.19;;;22.28;44.05
78073;BME280;67281;48.770;11.440;2023-05-10T02:47:55;96551.75;;;22.28;44.39
78073;BME280;67281;48.770;11.440;2023-05-10T02:50:22;96553.59;;;22.27;43.76
78073;BME280;67281;48.770;11.440;2023-05-10T02:52:51;96550.09;;;22.27;44.13
78073;BME280;67281;48.770;11.440;2023-05-10T02:55:26;96543.13;;;22.26;44.04
78073;BME280;67281;48.770;11.440;2023-05-10T02:58:00;96551.94;;;22.26;44.17
78073;BME280;67281;48.770;11.440;2023-05-10T03:00:27;96547.63;;;22.25;44.28
78073;BME280;67281;48.770;11.440;2023-05-10T03:02:54;96552.53;;;22.22;44.53
78073;BME280;67281;48.770;11.440;2023-05-10T03:05:21;96553.38;;;22.22;44.17
78073;BME280;67281;48.770;11.440;2023-05-10T03:07:48;96555.22;;;22.22;44.45
78073;BME280;67281;48.770;11.440;2023-05-10T03:10:15;96548.03;;;22.22;43.96
78073;BME280;67281;48.770;11.440;2023-05-10T03:16:01;96557.44;;;22.18;43.90
78073;BME280;67281;48.770;11.440;2023-05-10T03:19:03;96556.81;;;22.16;44.16
78073;BME280;67281;48.770;11.440;2023-05-10T03:21:36;96558.47;;;22.17;44.23
78073;BME280;67281;48.770;11.440;2023-05-10T03:24:07;96562.78;;;22.18;44.94
78073;BME280;67281;48.770;11.440;2023-05-10T03:26:34;96559.47;;;22.16;44.34
78073;BME280;67281;48.770;11.440;2023-05-10T03:29:04;96564.00;;;22.16;44.45
78073;BME280;67281;48.770;11.440;2023-05-10T03:31:31;96558.66;;;22.16;44.36
78073;BME280;67281;48.770;11.440;2023-05-10T03:33:58;96558.84;;;22.14;43.91
78073;BME280;67281;48.770;11.440;2023-05-10T03:36:25;96563.38;;;22.14;43.98
78073;BME280;67281;48.770;11.440;2023-05-10T03:38:52;96566.03;;;22.14;44.39
78073;BME280;67281;48.770;11.440;2023-05-10T03:41:19;96567.88;;;22.13;44.68
78073;BME280;67281;48.770;11.440;2023-05-10T03:43:47;96583.91;;;22.13;44.52
78073;BME280;67281;48.770;11.440;2023-05-10T03:46:13;96573.41;;;22.12;43.93
78073;BME280;67281;48.770;11.440;2023-05-10T03:48:40;96576.09;;;22.12;44.67
78073;BME280;67281;48.770;11.440;2023-05-10T03:51:07;96572.78;;;22.10;44.30
78073;BME280;67281;48.770;11.440;2023-05-10T03:53:34;96582.63;;;22.09;44.32
78073;BME280;67281;48.770;11.440;2023-05-10T03:56:01;96582.00;;;22.07;44.20
78073;BME280;67281;48.770;11.440;2023-05-10T03:58:27;96582.00;;;22.07;44.26
78073;BME280;67281;48.770;11.440;2023-05-10T04:00:54;96582.41;;;22.04;44.67
78073;BME280;67281;48.770;11.440;2023-05-10T04:03:21;96582.41;;;22.04;44.59
78073;BME280;67281;48.770;11.440;2023-05-10T04:05:48;96584.44;;;22.02;44.45
78073;BME280;67281;48.770;11.440;2023-05-10T04:08:15;96588.09;;;22.01;44.63
78073;BME280;67281;48.770;11.440;2023-05-10T04:10:42;96582.13;;;21.99;44.29
78073;BME280;67281;48.770;11.440;2023-05-10T04:13:10;96586.63;;;21.98;44.79
78073;BME280;67281;48.770;11.440;2023-05-10T04:15:37;96589.69;;;21.95;44.47
78073;BME280;67281;48.770;11.440;2023-05-10T04:18:07;96596.50;;;21.98;44.13
78073;BME280;67281;48.770;11.440;2023-05-10T04:20:34;96598.97;;;22.00;44.58
78073;BME280;67281;48.770;11.440;2023-05-10T04:23:01;96603.47;;;21.99;44.47
78073;BME280;67281;48.770;11.440;2023-05-10T04:25:28;96602.66;;;21.98;44.74
78073;BME280;67281;48.770;11.440;2023-05-10T04:27:54;96605.91;;;21.94;44.50
78073;BME280;67281;48.770;11.440;2023-05-10T04:30:21;96603.66;;;21.97;44.75
78073;BME280;67281;48.770;11.440;2023-05-10T04:32:48;96604.88;;;21.95;44.71
78073;BME280;67281;48.770;11.440;2023-05-10T04:35:15;96608.19;;;21.97;44.71
78073;BME280;67281;48.770;11.440;2023-05-10T04:37:41;96610.03;;;21.96;44.03
78073;BME280;67281;48.770;11.440;2023-05-10T04:40:09;96611.88;;;21.96;44.75
78073;BME280;67281;48.770;11.440;2023-05-10T04:42:36;96617.19;;;21.96;44.45
78073;BME280;67281;48.770;11.440;2023-05-10T04:45:03;96613.50;;;21.97;44.74
78073;BME280;67281;48.770;11.440;2023-05-10T04:47:30;96611.44;;;21.92;44.58
78073;BME280;67281;48.770;11.440;2023-05-10T04:49:57;96619.25;;;21.94;44.80
78073;BME280;67281;48.770;11.440;2023-05-10T04:52:24;96628.06;;;21.94;44.74
78073;BME280;67281;48.770;11.440;2023-05-10T04:54:51;96615.94;;;21.92;44.79
78073;BME280;67281;48.770;11.440;2023-05-10T04:57:17;96635.44;;;21.92;44.33
78073;BME280;67281;48.770;11.440;2023-05-10T04:59:44;96638.94;;;21.93;44.08
78073;BME280;67281;48.770;11.440;2023-05-10T05:02:13;96637.28;;;21.92;44.77
78073;BME280;67281;48.770;11.440;2023-05-10T05:04:40;96637.28;;;21.92;44.27
78073;BME280;67281;48.770;11.440;2023-05-10T05:07:06;96639.94;;;21.92;44.32
78073;BME280;67281;48.770;11.440;2023-05-10T05:09:33;96642.63;;;21.92;44.77
78073;BME280;67281;48.770;11.440;2023-05-10T05:12:01;96647.31;;;21.90;44.37
78073;BME280;67281;48.770;11.440;2023-05-10T05:14:27;96650.00;;;21.90;44.81
78073;BME280;67281;48.770;11.440;2023-05-10T05:16:54;96647.50;;;21.88;44.42
78073;BME280;67281;48.770;11.440;2023-05-10T05:19:22;96659.00;;;21.89;44.80
78073;BME280;67281;48.770;11.440;2023-05-10T05:21:49;96661.88;;;21.87;43.83
78073;BME280;67281;48.770;11.440;2023-05-10T05:24:16;96663.91;;;21.85;44.91
78073;BME280;67281;48.770;11.440;2023-05-10T05:26:43;96657.56;;;21.86;44.44
78073;BME280;67281;48.770;11.440;2023-05-10T05:29:09;96667.41;;;21.86;44.89
78073;BME280;67281;48.770;11.440;2023-05-10T05:31:36;96666.38;;;21.87;44.10
78073;BME280;67281;48.770;11.440;2023-05-10T05:34:03;96667.19;;;21.87;44.55
78073;BME280;67281;48.770;11.440;2023-05-10T05:36:30;96671.09;;;21.85;44.51
78073;BME280;67281;48.770;11.440;2023-05-10T05:38:57;96676.41;;;21.85;44.52
78073;BME280;67281;48.770;11.440;2023-05-10T05:41:24;96689.13;;;21.83;44.19
78073;BME280;67281;48.770;11.440;2023-05-10T05:43:51;96678.44;;;21.83;44.39
78073;BME280;67281;48.770;11.440;2023-05-10T05:46:18;96689.75;;;21.85;44.49
78073;BME280;67281;48.770;11.440;2023-05-10T05:48:44;96679.91;;;21.85;44.48
78073;BME280;67281;48.770;11.440;2023-05-10T05:51:11;96681.13;;;21.83;44.51
78073;BME280;67281;48.770;11.440;2023-05-10T05:53:38;96685.44;;;21.84;44.59
78073;BME280;67281;48.770;11.440;2023-05-10T05:56:05;96686.66;;;21.81;44.25
78073;BME280;67281;48.770;11.440;2023-05-10T05:58:32;96689.13;;;21.83;44.58
78073;BME280;67281;48.770;11.440;2023-05-10T06:00:58;96701.63;;;21.82;44.53
78073;BME280;67281;48.770;11.440;2023-05-10T06:03:25;96701.63;;;21.82;44.93
78073;BME280;67281;48.770;11.440;2023-05-10T06:05:52;96697.94;;;21.83;44.18
78073;BME280;67281;48.770;11.440;2023-05-10T06:08:19;96700.44;;;21.85;44.33
78073;BME280;67281;48.770;11.440;2023-05-10T06:10:46;96707.59;;;21.84;44.46
78073;BME280;67281;48.770;11.440;2023-05-10T06:13:13;96706.78;;;21.84;44.00
78073;BME280;67281;48.770;11.440;2023-05-10T06:15:40;96714.78;;;21.84;44.42
78073;BME280;67281;48.770;11.440;2023-05-10T06:18:07;96710.47;;;21.83;44.15
78073;BME280;67281;48.770;11.440;2023-05-10T06:20:34;96713.13;;;21.83;44.01
78073;BME280;67281;48.770;11.440;2023-05-10T06:23:01;96729.97;;;21.83;44.21
78073;BME280;67281;48.770;11.440;2023-05-10T06:25:28;96727.28;;;21.83;44.19
78073;BME280;67281;48.770;11.440;2023-05-10T06:27:55;96737.78;;;21.85;44.26
78073;BME280;67281;48.770;11.440;2023-05-10T06:30:25;96741.00;;;21.80;44.51
78073;BME280;67281;48.770;11.440;2023-05-10T06:32:55;96741.00;;;21.80;44.23
78073;BME280;67281;48.770;11.440;2023-05-10T06:35:23;96746.78;;;21.84;44.06
78073;BME280;67281;48.770;11.440;2023-05-10T06:37:50;96746.97;;;21.82;44.44
78073;BME280;67281;48.770;11.440;2023-05-10T06:40:17;96748.44;;;21.85;44.52
78073;BME280;67281;48.770;11.440;2023-05-10T06:42:45;96751.09;;;21.85;44.67
78073;BME280;67281;48.770;11.440;2023-05-10T06:45:13;96745.59;;;21.86;44.24
78073;BME280;67281;48.770;11.440;2023-05-10T06:47:41;96754.03;;;21.90;44.45
78073;BME280;67281;48.770;11.440;2023-05-10T06:50:09;96750.16;;;21.92;44.45
78073;BME280;67281;48.770;11.440;2023-05-10T06:52:36;96759.19;;;21.91;44.07
78073;BME280;67281;48.770;11.440;2023-05-10T06:55:04;96745.47;;;21.94;44.36
78073;BME280;67281;48.770;11.440;2023-05-10T06:57:31;96753.28;;;21.96;44.17
78073;BME280;67281;48.770;11.440;2023-05-10T06:59:58;96752.88;;;21.99;44.19
78073;BME280;67281;48.770;11.440;2023-05-10T07:02:25;96760.25;;;21.97;44.34
78073;BME280;67281;48.770;11.440;2023-05-10T07:04:53;96757.16;;;21.93;43.97
78073;BME280;67281;48.770;11.440;2023-05-10T07:07:19;96764.06;;;21.88;44.83
78073;BME280;67281;48.770;11.440;2023-05-10T07:09:46;96763.69;;;21.91;44.66
78073;BME280;67281;48.770;11.440;2023-05-10T07:12:13;96759.19;;;21.91;43.75
78073;BME280;67281;48.770;11.440;2023-05-10T07:14:41;96760.91;;;21.99;43.77
78073;BME280;67281;48.770;11.440;2023-05-10T07:17:09;96749.88;;;22.02;44.29
78073;BME280;67281;48.770;11.440;2023-05-10T07:19:36;96765.50;;;22.05;43.54
78073;BME280;67281;48.770;11.440;2023-05-10T07:22:03;96770.47;;;22.08;43.82
78073;BME280;67281;48.770;11.440;2023-05-10T07:24:30;96769.44;;;22.09;43.76
78073;BME280;67281;48.770;11.440;2023-05-10T07:26:57;96767.41;;;22.11;43.63
78073;BME280;67281;48.770;11.440;2023-05-10T07:29:24;96776.25;;;22.12;43.51
78073;BME280;67281;48.770;11.440;2023-05-10T07:31:51;96776.44;;;22.10;43.33
78073;BME280;67281;48.770;11.440;2023-05-10T07:34:18;96774.78;;;22.09;44.02
78073;BME280;67281;48.770;11.440;2023-05-10T07:36:45;96772.50;;;22.06;44.17
78073;BME280;67281;48.770;11.440;2023-05-10T07:39:12;96779.88;;;22.04;43.82
78073;BME280;67281;48.770;11.440;2023-05-10T07:41:51;96781.91;;;22.02;43.73
78073;BME280;67281;48.770;11.440;2023-05-10T07:44:18;96774.88;;;22.01;44.02
78073;BME280;67281;48.770;11.440;2023-05-10T07:46:47;96777.38;;;22.03;44.03
78073;BME280;67281;48.770;11.440;2023-05-10T07:49:16;96786.03;;;22.05;44.02
78073;BME280;67281;48.770;11.440;2023-05-10T07:51:43;96789.13;;;22.08;44.45
78073;BME280;67281;48.770;11.440;2023-05-10T07:54:09;96782.78;;;22.09;43.97
78073;BME280;67281;48.770;11.440;2023-05-10T07:56:36;96779.66;;;22.06;44.21
78073;BME280;67281;48.770;11.440;2023-05-10T07:59:03;96776.19;;;22.05;43.89
78073;BME280;67281;48.770;11.440;2023-05-10T08:01:34;96774.16;;;22.07;43.98
78073;BME280;67281;48.770;11.440;2023-05-10T08:04:01;96780.75;;;22.11;44.04
78073;BME280;67281;48.770;11.440;2023-05-10T08:06:29;96780.38;;;22.14;43.84
78073;BME280;67281;48.770;11.440;2023-05-10T08:08:56;96782.03;;;22.15;44.13
78073;BME280;67281;48.770;11.440;2023-05-10T08:11:24;96782.84;;;22.16;43.62
78073;BME280;67281;48.770;11.440;2023-05-10T08:13:51;96784.50;;;22.17;43.80
78073;BME280;67281;48.770;11.440;2023-05-10T08:16:18;96784.69;;;22.15;43.53
78073;BME280;67281;48.770;11.440;2023-05-10T08:18:46;96791.88;;;22.15;44.18
78073;BME280;67281;48.770;11.440;2023-05-10T08:21:14;96785.25;;;22.11;43.68
78073;BME280;67281;48.770;11.440;2023-05-10T08:23:41;96790.78;;;22.09;43.98
78073;BME280;67281;48.770;11.440;2023-05-10T08:26:10;96786.47;;;22.08;43.91
78073;BME280;67281;48.770;11.440;2023-05-10T08:28:37;96789.72;;;22.04;43.77
78073;BME280;67281;48.770;11.440;2023-05-10T08:31:05;96796.69;;;22.05;43.68
78073;BME280;67281;48.770;11.440;2023-05-10T08:33:32;96790.41;;;22.12;43.96
78073;BME280;67281;48.770;11.440;2023-05-10T08:35:59;96788.00;;;22.17;44.13
78073;BME280;67281;48.770;11.440;2023-05-10T08:38:26;96791.31;;;22.19;43.63
78073;BME280;67281;48.770;11.440;2023-05-10T08:40:55;96791.88;;;22.15;43.89
78073;BME280;67281;48.770;11.440;2023-05-10T08:43:29;96791.44;;;22.11;44.25
78073;BME280;67281;48.770;11.440;2023-05-10T08:46:00;96802.88;;;22.05;43.79
78073;BME280;67281;48.770;11.440;2023-05-10T08:48:28;96794.41;;;22.02;44.57
78073;BME280;67281;48.770;11.440;2023-05-10T08:50:58;96797.44;;;21.98;43.97
78073;BME280;67281;48.770;11.440;2023-05-10T08:53:27;96802.75;;;21.98;44.20
78073;BME280;67281;48.770;11.440;2023-05-10T08:55:55;96802.94;;;21.97;44.24
78073;BME280;67281;48.770;11.440;2023-05-10T08:58:22;96801.69;;;21.93;44.05
78073;BME280;67281;48.770;11.440;2023-05-10T09:00:49;96806.44;;;21.97;44.11
78073;BME280;67281;48.770;11.440;2023-05-10T09:03:19;96807.28;;;21.98;44.27
78073;BME280;67281;48.770;11.440;2023-05-10T09:05:46;96801.94;;;21.98;43.95
78073;BME280;67281;48.770;11.440;2023-05-10T09:08:13;96799.56;;;22.03;43.84
78073;BME280;67281;48.770;11.440;2023-05-10T09:10:46;96805.59;;;22.12;44.26
78073;BME280;67281;48.770;11.440;2023-05-10T09:13:14;96806.69;;;22.17;44.25
78073;BME280;67281;48.770;11.440;2023-05-10T09:15:45;96809.78;;;22.21;43.50
78073;BME280;67281;48.770;11.440;2023-05-10T09:18:12;96809.22;;;22.25;43.80
78073;BME280;67281;48.770;11.440;2023-05-10T09:20:39;96807.78;;;22.29;43.53
78073;BME280;67281;48.770;11.440;2023-05-10T09:23:07;96808.22;;;22.33;43.45
78073;BME280;67281;48.770;11.440;2023-05-10T09:25:34;96803.53;;;22.35;43.76
78073;BME280;67281;48.770;11.440;2023-05-10T09:28:01;96808.88;;;22.35;43.21
78073;BME280;67281;48.770;11.440;2023-05-10T09:30:30;96804.34;;;22.36;43.61
78073;BME280;67281;48.770;11.440;2023-05-10T09:32:58;96796.97;;;22.38;43.47
78073;BME280;67281;48.770;11.440;2023-05-10T09:35:28;96808.47;;;22.38;43.38
78073;BME280;67281;48.770;11.440;2023-05-10T09:37:57;96796.16;;;22.37;43.40
78073;BME280;67281;48.770;11.440;2023-05-10T09:40:26;96801.31;;;22.39;43.47
78073;BME280;67281;48.770;11.440;2023-05-10T09:45:28;96800.91;;;22.42;43.36
78073;BME280;67281;48.770;11.440;2023-05-10T09:47:55;96802.75;;;22.41;43.27
78073;BME280;67281;48.770;11.440;2023-05-10T09:50:22;96796.78;;;22.39;43.13
78073;BME280;67281;48.770;11.440;2023-05-10T09:52:53;96799.06;;;22.42;43.02
78073;BME280;67281;48.770;11.440;2023-05-10T09:55:23;96794.38;;;22.44;42.98
78073;BME280;67281;48.770;11.440;2023-05-10T09:58:00;96797.47;;;22.48;43.72
78073;BME280;67281;48.770;11.440;2023-05-10T10:00:27;96798.13;;;22.50;43.56
78073;BME280;67281;48.770;11.440;2023-05-10T10:02:56;96797.09;;;22.51;42.85
78073;BME280;67281;48.770;11.440;2023-05-10T10:05:29;96791.38;;;22.54;43.46
78073;BME280;67281;48.770;11.440;2023-05-10T10:07:57;96792.19;;;22.54;43.11
78073;BME280;67281;48.770;11.440;2023-05-10T10:10:25;96792.81;;;22.56;43.34
78073;BME280;67281;48.770;11.440;2023-05-10T10:12:52;96786.66;;;22.56;43.06
78073;BME280;67281;48.770;11.440;2023-05-10T10:15:21;96790.59;;;22.60;42.66
78073;BME280;67281;48.770;11.440;2023-05-10T10:17:49;96789.75;;;22.59;43.21
78073;BME280;67281;48.770;11.440;2023-05-10T10:20:18;96782.19;;;22.63;42.75
78073;BME280;67281;48.770;11.440;2023-05-10T10:22:46;96779.75;;;22.68;43.03
78073;BME280;67281;48.770;11.440;2023-05-10T10:25:15;96790.06;;;22.71;43.16
78073;BME280;67281;48.770;11.440;2023-05-10T10:35:55;96782.28;;;22.48;43.49
78073;BME280;67281;48.770;11.440;2023-05-10T10:41:30;96784.72;;;22.43;43.33
78073;BME280;67281;48.770;11.440;2023-05-10T10:44:23;96781.41;;;22.41;43.46
78073;BME280;67281;48.770;11.440;2023-05-10T10:47:07;96782.41;;;22.40;43.50
78073;BME280;67281;48.770;11.440;2023-05-10T10:49:49;96770.34;;;22.44;43.01
78073;BME280;67281;48.770;11.440;2023-05-10T10:52:33;96775.91;;;22.49;43.30
78073;BME280;67281;48.770;11.440;2023-05-10T10:55:14;96781.75;;;22.59;43.08
78073;BME280;67281;48.770;11.440;2023-05-10T10:57:45;96789.81;;;22.66;43.00
78073;BME280;67281;48.770;11.440;2023-05-10T11:08:08;96787.63;;;22.48;43.24
78073;BME280;67281;48.770;11.440;2023-05-10T11:10:35;96783.31;;;22.47;43.20
78073;BME280;67281;48.770;11.440;2023-05-10T11:13:07;96778.78;;;22.48;43.42
78073;BME280;67281;48.770;11.440;2023-05-10T11:15:39;96784.56;;;22.51;43.70
78073;BME280;67281;48.770;11.440;2023-05-10T11:18:17;96783.16;;;22.55;42.94
78073;BME280;67281;48.770;11.440;2023-05-10T11:20:55;96786.28;;;22.59;43.09
78073;BME280;67281;48.770;11.440;2023-05-10T11:23:23;96788.56;;;22.62;43.30
78073;BME280;67281;48.770;11.440;2023-05-10T11:25:50;96784.22;;;22.61;43.20
78073;BME280;67281;48.770;11.440;2023-05-10T11:28:17;96784.81;;;22.56;43.63
78073;BME280;67281;48.770;11.440;2023-05-10T11:30:46;96779.84;;;22.53;43.60
78073;BME280;67281;48.770;11.440;2023-05-10T11:33:17;96784.75;;;22.50;43.49
78073;BME280;67281;48.770;11.440;2023-05-10T11:38:12;96782.22;;;22.42;43.82
78073;BME280;67281;48.770;11.440;2023-05-10T11:40:40;96793.28;;;22.39;43.58
78073;BME280;67281;48.770;11.440;2023-05-10T11:43:09;96796.97;;;22.38;43.46
78073;BME280;67281;48.770;11.440;2023-05-10T11:45:37;96796.97;;;22.38;44.11
78073;BME280;67281;48.770;11.440;2023-05-10T11:48:04;96791.84;;;22.36;43.82
78073;BME280;67281;48.770;11.440;2023-05-10T11:50:31;96795.31;;;22.37;44.08
78073;BME280;67281;48.770;11.440;2023-05-10T11:52:59;96800.66;;;22.37;44.13
78073;BME280;67281;48.770;11.440;2023-05-10T11:55:26;96805.19;;;22.36;44.16
78073;BME280;67281;48.770;11.440;2023-05-10T11:57:54;96796.34;;;22.36;44.38
78073;BME280;67281;48.770;11.440;2023-05-10T12:00:21;96801.50;;;22.37;43.56
78073;BME280;67281;48.770;11.440;2023-05-10T12:02:48;96796.41;;;22.42;44.15
78073;BME280;67281;48.770;11.440;2023-05-10T12:05:15;96795.38;;;22.43;43.78
78073;BME280;67281;48.770;11.440;2023-05-10T12:07:43;96799.31;;;22.47;44.17
78073;BME280;67281;48.770;11.440;2023-05-10T12:10:11;96800.19;;;22.54;43.51
78073;BME280;67281;48.770;11.440;2023-05-10T12:12:46;96801.28;;;22.60;43.23
78073;BME280;67281;48.770;11.440;2023-05-10T12:15:19;96795.09;;;22.59;43.50
78073;BME280;67281;48.770;11.440;2023-05-10T12:17:47;96798.59;;;22.60;43.59
78073;BME280;67281;48.770;11.440;2023-05-10T12:20:19;96804.19;;;22.65;43.33
78073;BME280;67281;48.770;11.440;2023-05-10T12:22:50;96806.09;;;22.71;43.27
78073;BME280;67281;48.770;11.440;2023-05-10T12:25:18;96804.25;;;22.72;43.55
78073;BME280;67281;48.770;11.440;2023-05-10T12:27:58;96798.94;;;22.78;43.15
78073;BME280;67281;48.770;11.440;2023-05-10T12:30:28;96802.53;;;22.85;43.45
78073;BME280;67281;48.770;11.440;2023-05-10T12:33:07;96801.50;;;22.86;42.66
78073;BME280;67281;48.770;11.440;2023-05-10T12:35:52;96808.88;;;22.84;43.06
78073;BME280;67281;48.770;11.440;2023-05-10T12:38:39;96802.09;;;22.82;42.84
78073;BME280;67281;48.770;11.440;2023-05-10T12:41:07;96806.22;;;22.84;43.34
78073;BME280;67281;48.770;11.440;2023-05-10T12:43:36;96807.88;;;22.85;42.76
78073;BME280;67281;48.770;11.440;2023-05-10T12:46:07;96799.84;;;22.85;43.12
78073;BME280;67281;48.770;11.440;2023-05-10T12:48:35;96806.03;;;22.86;43.02
78073;BME280;67281;48.770;11.440;2023-05-10T12:51:03;96811.75;;;22.83;42.73
78073;BME280;67281;48.770;11.440;2023-05-10T12:53:31;96806.81;;;22.80;42.91
78073;BME280;67281;48.770;11.440;2023-05-10T12:55:58;96809.84;;;22.77;43.11
78073;BME280;67281;48.770;11.440;2023-05-10T12:58:24;96805.91;;;22.73;43.14
78073;BME280;67281;48.770;11.440;2023-05-10T13:01:01;96813.66;;;22.68;43.42
78073;BME280;67281;48.770;11.440;2023-05-10T13:03:28;96813.84;;;22.66;43.80
78073;BME280;67281;48.770;11.440;2023-05-10T13:05:55;96820.22;;;22.65;43.90
78073;BME280;67281;48.770;11.440;2023-05-10T13:08:22;96825.56;;;22.65;43.46
78073;BME280;67281;48.770;11.440;2023-05-10T13:10:49;96828.22;;;22.65;43.37
78073;BME280;67281;48.770;11.440;2023-05-10T13:13:16;96837.91;;;22.66;43.61
78073;BME280;67281;48.770;11.440;2023-05-10T13:15:44;96838.09;;;22.65;43.29
78073;BME280;67281;48.770;11.440;2023-05-10T13:18:11;96842.59;;;22.64;43.69
78073;BME280;67281;48.770;11.440;2023-05-10T13:20:38;96844.25;;;22.65;43.97
78073;BME280;67281;48.770;11.440;2023-05-10T13:23:04;96847.94;;;22.64;43.89
78073;BME280;67281;48.770;11.440;2023-05-10T13:25:31;96844.00;;;22.60;44.20
78073;BME280;67281;48.770;11.440;2023-05-10T13:27:58;96843.19;;;22.59;43.84
78073;BME280;67281;48.770;11.440;2023-05-10T13:30:25;96835.38;;;22.58;43.50
78073;BME280;67281;48.770;11.440;2023-05-10T13:32:51;96840.72;;;22.58;44.04
78073;BME280;67281;48.770;11.440;2023-05-10T13:35:18;96836.38;;;22.57;43.77